createdAt,value
2019-03-31T00:01:10.996Z,6.58
2019-03-31T00:03:40.676Z,6.43
2019-03-31T00:06:10.591Z,6.60
2019-03-31T00:08:40.307Z,6.61
2019-03-31T00:11:10.047Z,6.54
2019-03-31T00:13:39.688Z,6.51
2019-03-31T00:16:09.363Z,6.59
2019-03-31T00:18:39.235Z,6.45
2019-03-31T00:21:08.890Z,6.66
2019-03-31T00:23:38.570Z,6.48
2019-03-31T00:26:08.221Z,6.50
2019-03-31T00:28:37.996Z,6.56
2019-03-31T00:31:21.219Z,6.45
2019-03-31T00:33:39.355Z,6.37
2019-03-31T00:36:09.500Z,6.38
2019-03-31T00:38:39.208Z,6.47
2019-03-31T00:41:08.915Z,6.45
2019-03-31T00:43:38.601Z,6.58
2019-03-31T00:46:08.286Z,6.58
2019-03-31T00:48:37.976Z,6.38
2019-03-31T00:51:07.615Z,6.34
2019-03-31T00:53:37.340Z,6.46
2019-03-31T00:56:07.454Z,6.33
2019-03-31T00:58:37.192Z,6.32
2019-03-31T01:01:36.829Z,6.18
2019-03-31T01:04:03.917Z,6.27
2019-03-31T01:06:34.353Z,6.20
2019-03-31T01:09:07.496Z,6.19
2019-03-31T01:11:37.205Z,6.12
2019-03-31T01:14:06.809Z,5.95
2019-03-31T01:16:36.449Z,6.03
2019-03-31T01:19:06.167Z,5.97
2019-03-31T01:21:35.811Z,6.09
2019-03-31T01:24:05.489Z,5.93
2019-03-31T01:26:35.134Z,5.90
2019-03-31T01:29:05.165Z,5.82
2019-03-31T01:31:34.816Z,5.83
2019-03-31T01:34:04.714Z,5.77
2019-03-31T01:36:34.699Z,5.74
2019-03-31T01:39:05.497Z,5.70
2019-03-31T01:41:35.149Z,5.50
2019-03-31T01:44:04.965Z,5.38
2019-03-31T01:46:34.623Z,5.44
2019-03-31T01:49:04.299Z,5.48
2019-03-31T01:51:33.949Z,5.48
2019-03-31T01:54:03.649Z,5.53
2019-03-31T01:56:33.304Z,5.52
2019-03-31T01:59:03.220Z,5.46
2019-03-31T02:01:32.939Z,5.34
2019-03-31T02:04:02.805Z,5.26
2019-03-31T02:06:32.456Z,5.41
2019-03-31T02:09:02.241Z,5.41
2019-03-31T02:11:31.889Z,5.07
2019-03-31T02:14:01.650Z,5.12
2019-03-31T02:16:31.310Z,5.16
2019-03-31T02:19:01.041Z,5.13
2019-03-31T02:21:31.167Z,5.08
2019-03-31T02:24:00.871Z,4.96
2019-03-31T02:26:30.535Z,4.91
2019-03-31T02:29:00.239Z,4.91
2019-03-31T02:31:29.899Z,4.78
2019-03-31T02:33:59.607Z,4.88
2019-03-31T02:36:29.246Z,4.90
2019-03-31T02:38:58.951Z,4.86
2019-03-31T02:41:28.662Z,4.79
2019-03-31T02:43:58.371Z,4.81
2019-03-31T02:46:28.003Z,4.80
2019-03-31T02:48:57.681Z,4.72
2019-03-31T02:51:27.646Z,4.68
2019-03-31T02:53:57.337Z,4.69
2019-03-31T02:56:28.220Z,4.75
2019-03-31T02:58:58.897Z,4.75
2019-03-31T03:01:29.750Z,4.58
2019-03-31T03:04:01.603Z,4.70
2019-03-31T03:06:32.424Z,4.68
2019-03-31T03:09:06.189Z,4.49
2019-03-31T03:11:36.884Z,4.49
2019-03-31T03:14:07.043Z,4.57
2019-03-31T03:16:36.697Z,4.60
2019-03-31T03:19:06.403Z,4.31
2019-03-31T03:21:36.058Z,4.23
2019-03-31T03:24:05.735Z,4.31
2019-03-31T03:26:35.378Z,4.44
2019-03-31T03:29:05.081Z,4.49
2019-03-31T03:31:34.713Z,4.57
2019-03-31T03:34:04.431Z,4.49
2019-03-31T03:36:34.077Z,4.48
2019-03-31T03:39:06.079Z,4.54
2019-03-31T03:41:35.746Z,4.35
2019-03-31T03:44:05.388Z,4.21
2019-03-31T03:46:35.206Z,4.11
2019-03-31T03:49:05.144Z,4.27
2019-03-31T03:51:34.937Z,4.38
2019-03-31T03:54:04.571Z,4.32
2019-03-31T03:56:34.241Z,4.18
2019-03-31T03:59:03.882Z,4.30
2019-03-31T04:01:33.569Z,4.40
2019-03-31T04:04:03.237Z,4.34
2019-03-31T04:06:32.950Z,4.31
2019-03-31T04:09:02.588Z,4.27
2019-03-31T04:11:32.283Z,4.17
2019-03-31T04:14:01.961Z,4.14
2019-03-31T04:16:31.731Z,4.23
2019-03-31T04:19:01.381Z,4.26
2019-03-31T04:21:31.098Z,4.28
2019-03-31T04:24:00.733Z,4.17
2019-03-31T04:26:30.416Z,4.08
2019-03-31T04:29:00.154Z,4.14
2019-03-31T04:31:29.777Z,4.19
2019-03-31T04:33:59.457Z,4.31
2019-03-31T04:36:29.170Z,4.29
2019-03-31T04:39:00.435Z,4.37
2019-03-31T04:41:30.542Z,4.42
2019-03-31T04:44:00.215Z,4.57
2019-03-31T04:46:29.900Z,4.77
2019-03-31T04:48:59.775Z,4.76
2019-03-31T04:51:29.507Z,4.79
2019-03-31T04:53:59.229Z,4.96
2019-03-31T04:56:28.907Z,5.12
2019-03-31T04:58:58.578Z,5.09
2019-03-31T05:01:28.342Z,5.29
2019-03-31T05:04:05.117Z,5.31
2019-03-31T05:06:29.774Z,5.52
2019-03-31T05:08:59.384Z,5.64
2019-03-31T05:11:29.062Z,5.78
2019-03-31T05:13:58.737Z,5.84
2019-03-31T05:16:28.488Z,5.89
2019-03-31T05:18:58.188Z,6.42
2019-03-31T05:21:27.893Z,6.26
2019-03-31T05:23:57.590Z,6.29
2019-03-31T05:26:27.598Z,6.20
2019-03-31T05:28:57.268Z,6.28
2019-03-31T05:31:26.906Z,6.36
2019-03-31T05:33:56.579Z,6.54
2019-03-31T05:36:26.226Z,6.87
2019-03-31T05:38:55.888Z,7.28
2019-03-31T05:41:25.666Z,7.50
2019-03-31T05:44:05.607Z,7.67
2019-03-31T05:46:26.971Z,7.67
2019-03-31T05:48:56.666Z,7.76
2019-03-31T05:51:26.227Z,7.88
2019-03-31T05:53:56.013Z,7.98
2019-03-31T05:56:25.728Z,8.13
2019-03-31T05:58:55.403Z,8.10
2019-03-31T06:01:25.318Z,8.08
2019-03-31T06:03:54.995Z,8.03
2019-03-31T06:06:24.648Z,8.03
2019-03-31T06:08:54.357Z,8.11
2019-03-31T06:11:24.087Z,8.11
2019-03-31T06:13:53.819Z,8.08
2019-03-31T06:16:23.535Z,8.14
2019-03-31T06:18:53.115Z,8.14
2019-03-31T06:21:23.018Z,8.09
2019-03-31T06:23:52.706Z,8.09
2019-03-31T06:26:22.446Z,7.97
2019-03-31T06:28:52.123Z,7.97
2019-03-31T06:31:21.975Z,8.01
2019-03-31T06:33:51.700Z,8.01
2019-03-31T06:36:21.348Z,8.00
2019-03-31T06:38:51.113Z,7.97
2019-03-31T06:41:21.098Z,7.89
2019-03-31T06:43:50.735Z,7.89
2019-03-31T06:46:20.410Z,7.80
2019-03-31T06:48:50.130Z,7.80
2019-03-31T06:51:20.113Z,7.88
2019-03-31T06:53:50.200Z,7.77
2019-03-31T06:56:19.956Z,7.71
2019-03-31T06:58:49.633Z,7.66
2019-03-31T07:01:19.360Z,7.45
2019-03-31T07:03:49.146Z,7.47
2019-03-31T07:06:19.012Z,7.50
2019-03-31T07:08:49.238Z,7.37
2019-03-31T07:11:19.125Z,7.30
2019-03-31T07:13:48.923Z,7.42
2019-03-31T07:16:21.860Z,7.54
2019-03-31T07:18:52.129Z,7.48
2019-03-31T07:21:21.842Z,7.42
2019-03-31T07:23:51.579Z,7.37
2019-03-31T07:26:21.352Z,7.40
2019-03-31T07:28:51.049Z,7.66
2019-03-31T07:31:20.722Z,7.49
2019-03-31T07:33:50.365Z,7.31
2019-03-31T07:36:20.318Z,7.31
2019-03-31T07:38:50.046Z,7.36
2019-03-31T07:41:20.171Z,7.32
2019-03-31T07:43:49.887Z,7.30
2019-03-31T07:46:19.654Z,7.16
2019-03-31T07:48:49.230Z,7.37
2019-03-31T07:51:18.977Z,7.00
2019-03-31T07:53:48.591Z,6.87
2019-03-31T07:56:18.271Z,7.20
2019-03-31T07:58:48.037Z,7.20
2019-03-31T08:01:17.863Z,7.21
2019-03-31T08:03:47.510Z,7.21
2019-03-31T08:06:17.258Z,7.59
2019-03-31T08:08:47.025Z,7.54
2019-03-31T08:11:17.369Z,7.62
2019-03-31T08:13:47.157Z,7.59
2019-03-31T08:16:16.962Z,7.67
2019-03-31T08:18:46.626Z,7.75
2019-03-31T08:21:16.298Z,7.68
2019-03-31T08:23:45.984Z,7.59
2019-03-31T08:26:15.732Z,7.57
2019-03-31T08:28:45.395Z,7.88
2019-03-31T08:31:15.116Z,7.88
2019-03-31T08:33:44.742Z,8.02
2019-03-31T08:36:14.495Z,8.06
2019-03-31T08:38:44.175Z,8.30
2019-03-31T08:41:13.812Z,8.02
2019-03-31T08:43:43.500Z,8.15
2019-03-31T08:46:13.238Z,8.15
2019-03-31T08:48:42.909Z,8.30
2019-03-31T08:51:12.532Z,8.32
2019-03-31T08:53:42.163Z,8.32
2019-03-31T08:56:11.795Z,8.20
2019-03-31T08:58:41.608Z,8.20
2019-03-31T09:01:13.742Z,8.06
2019-03-31T09:03:43.428Z,8.05
2019-03-31T09:06:13.128Z,8.20
2019-03-31T09:08:42.715Z,8.24
2019-03-31T09:11:12.378Z,8.37
2019-03-31T09:13:42.001Z,8.37
2019-03-31T09:16:11.696Z,8.51
2019-03-31T09:18:41.687Z,8.51
2019-03-31T09:21:11.416Z,8.20
2019-03-31T09:23:41.179Z,8.20
2019-03-31T09:26:10.931Z,8.32
2019-03-31T09:28:40.614Z,8.38
2019-03-31T09:31:10.359Z,8.38
2019-03-31T09:33:40.023Z,8.41
2019-03-31T09:36:16.206Z,8.49
2019-03-31T09:38:42.095Z,8.69
2019-03-31T09:41:11.819Z,8.70
2019-03-31T09:43:41.444Z,8.82
2019-03-31T09:46:11.127Z,8.79
2019-03-31T09:48:40.831Z,9.00
2019-03-31T09:51:10.489Z,8.74
2019-03-31T09:53:40.205Z,8.74
2019-03-31T09:56:09.939Z,9.00
2019-03-31T09:58:39.854Z,9.12
2019-03-31T10:01:09.523Z,9.05
2019-03-31T10:03:39.418Z,9.24
2019-03-31T10:06:10.936Z,9.12
2019-03-31T10:08:40.703Z,9.13
2019-03-31T10:11:10.332Z,9.13
2019-03-31T10:13:40.156Z,9.13
2019-03-31T10:16:09.948Z,9.20
2019-03-31T10:18:39.887Z,9.35
2019-03-31T10:21:09.593Z,9.32
2019-03-31T10:23:39.217Z,9.61
2019-03-31T10:26:09.020Z,9.78
2019-03-31T10:28:38.641Z,9.65
2019-03-31T10:31:08.635Z,9.54
2019-03-31T10:33:38.268Z,9.42
2019-03-31T10:36:08.076Z,9.48
2019-03-31T10:38:37.729Z,9.59
2019-03-31T10:41:07.429Z,9.84
2019-03-31T10:43:37.184Z,9.74
2019-03-31T10:46:06.847Z,9.63
2019-03-31T10:48:36.576Z,9.69
2019-03-31T10:51:06.699Z,9.66
2019-03-31T10:53:36.360Z,9.61
2019-03-31T10:56:06.034Z,9.63
2019-03-31T10:58:36.122Z,9.63
2019-03-31T11:01:08.421Z,9.64
2019-03-31T11:03:38.838Z,9.40
2019-03-31T11:06:08.558Z,9.49
2019-03-31T11:08:38.262Z,9.68
2019-03-31T11:11:07.948Z,9.52
2019-03-31T11:13:37.735Z,9.53
2019-03-31T11:16:07.375Z,9.32
2019-03-31T11:18:37.103Z,9.54
2019-03-31T11:21:13.819Z,9.36
2019-03-31T11:23:43.888Z,9.02
2019-03-31T11:26:13.640Z,9.06
2019-03-31T11:28:43.315Z,9.38
2019-03-31T11:31:12.948Z,9.23
2019-03-31T11:33:42.986Z,9.25
2019-03-31T11:36:12.873Z,9.39
2019-03-31T11:38:42.571Z,9.32
2019-03-31T11:41:12.241Z,9.33
2019-03-31T11:43:41.902Z,9.41
2019-03-31T11:46:11.622Z,9.29
2019-03-31T11:48:41.303Z,9.10
2019-03-31T11:51:10.944Z,9.20
2019-03-31T11:53:41.046Z,9.42
2019-03-31T11:56:10.919Z,9.31
2019-03-31T11:58:40.675Z,9.65
2019-03-31T12:04:59.920Z,9.55
2019-03-31T12:07:59.937Z,9.41
2019-03-31T12:10:29.596Z,9.40
2019-03-31T12:12:59.308Z,9.45
2019-03-31T12:15:29.005Z,9.18
2019-03-31T12:17:58.672Z,9.10
2019-03-31T12:20:28.311Z,9.10
2019-03-31T12:22:58.285Z,8.86
2019-03-31T12:25:27.988Z,8.82
2019-03-31T12:27:58.113Z,9.17
2019-03-31T12:30:30.722Z,9.32
2019-03-31T12:33:00.415Z,9.24
2019-03-31T12:35:30.076Z,9.42
2019-03-31T12:37:59.835Z,9.81
2019-03-31T12:40:33.928Z,9.82
2019-03-31T12:43:03.608Z,9.48
2019-03-31T12:45:33.239Z,9.74
2019-03-31T12:48:02.893Z,9.79
2019-03-31T12:50:32.589Z,9.72
2019-03-31T12:53:02.295Z,9.50
2019-03-31T12:55:32.124Z,9.50
2019-03-31T12:58:01.782Z,9.52
2019-03-31T13:00:31.480Z,9.43
2019-03-31T13:03:01.201Z,9.56
2019-03-31T13:05:30.894Z,9.71
2019-03-31T13:08:00.649Z,9.40
2019-03-31T13:10:30.446Z,9.52
2019-03-31T13:13:00.157Z,9.53
2019-03-31T13:15:31.630Z,9.68
2019-03-31T13:18:01.737Z,9.55
2019-03-31T13:20:31.492Z,9.83
2019-03-31T13:23:01.205Z,10.04
2019-03-31T13:25:32.351Z,10.30
2019-03-31T13:28:05.378Z,10.08
2019-03-31T13:30:33.809Z,9.91
2019-03-31T13:33:03.457Z,10.19
2019-03-31T13:35:33.239Z,10.06
2019-03-31T13:38:11.038Z,10.22
2019-03-31T13:40:34.366Z,10.47
2019-03-31T13:43:04.182Z,10.52
2019-03-31T13:45:33.840Z,10.41
2019-03-31T13:48:03.507Z,10.68
2019-03-31T13:50:33.254Z,10.60
2019-03-31T13:53:03.100Z,10.80
2019-03-31T13:55:35.391Z,10.73
2019-03-31T13:58:07.692Z,11.07
2019-03-31T14:00:38.357Z,11.08
2019-03-31T14:03:07.959Z,11.28
2019-03-31T14:05:37.603Z,11.15
2019-03-31T14:08:30.064Z,10.88
2019-03-31T14:11:21.755Z,10.92
2019-03-31T14:13:55.773Z,10.78
2019-03-31T14:16:23.688Z,10.46
2019-03-31T14:18:53.365Z,10.83
2019-03-31T14:21:23.421Z,10.59
2019-03-31T14:23:53.218Z,10.92
2019-03-31T14:26:22.907Z,10.58
2019-03-31T14:28:52.562Z,10.78
2019-03-31T14:31:22.308Z,10.77
2019-03-31T14:33:51.942Z,11.01
2019-03-31T14:36:21.650Z,11.12
2019-03-31T14:38:51.403Z,11.10
2019-03-31T14:41:21.154Z,11.22
2019-03-31T14:43:50.964Z,11.04
2019-03-31T14:46:21.064Z,10.92
2019-03-31T14:48:50.739Z,10.93
2019-03-31T14:51:20.422Z,10.80
2019-03-31T14:53:50.227Z,10.80
2019-03-31T14:56:20.026Z,10.67
2019-03-31T14:58:49.832Z,10.80
2019-03-31T15:01:21.269Z,10.67
2019-03-31T15:03:53.154Z,10.27
2019-03-31T15:06:24.412Z,10.39
2019-03-31T15:08:58.071Z,10.44
2019-03-31T15:11:27.802Z,10.31
2019-03-31T15:13:57.569Z,10.28
2019-03-31T15:16:27.452Z,10.35
2019-03-31T15:18:57.442Z,10.29
2019-03-31T15:21:29.031Z,10.29
2019-03-31T15:24:00.368Z,10.47
2019-03-31T15:26:30.473Z,10.40
2019-03-31T15:29:03.161Z,10.58
2019-03-31T15:31:43.344Z,10.40
2019-03-31T15:34:15.097Z,10.31
2019-03-31T15:36:51.045Z,10.22
2019-03-31T15:39:26.531Z,10.13
2019-03-31T15:41:58.873Z,10.12
2019-03-31T15:44:28.875Z,10.22
2019-03-31T15:47:06.202Z,10.32
2019-03-31T15:49:39.737Z,10.12
2019-03-31T15:52:16.000Z,10.27
2019-03-31T15:54:46.058Z,10.27
2019-03-31T15:57:16.397Z,10.41
2019-03-31T15:59:51.052Z,10.31
2019-03-31T16:02:22.566Z,10.17
2019-03-31T16:04:57.496Z,10.18
2019-03-31T16:07:27.671Z,10.31
2019-03-31T16:09:57.171Z,10.22
2019-03-31T16:12:27.093Z,10.27
2019-03-31T16:15:01.948Z,10.23
2019-03-31T16:17:33.375Z,10.29
2019-03-31T16:20:02.903Z,10.36
2019-03-31T16:22:39.893Z,10.35
2019-03-31T16:25:21.608Z,10.05
2019-03-31T16:27:50.952Z,10.11
2019-03-31T16:30:24.381Z,9.89
2019-03-31T16:32:57.811Z,10.02
2019-03-31T16:35:30.137Z,9.97
2019-03-31T16:37:59.535Z,9.99
2019-03-31T16:40:36.648Z,9.87
2019-03-31T16:43:05.850Z,9.91
2019-03-31T16:45:36.927Z,9.96
2019-03-31T16:48:15.599Z,9.93
2019-03-31T16:50:44.818Z,9.81
2019-03-31T16:53:14.063Z,9.95
2019-03-31T16:55:43.309Z,9.92
2019-03-31T16:58:18.308Z,9.78
2019-03-31T17:04:15.893Z,9.65
2019-03-31T17:06:45.243Z,9.53
2019-03-31T17:09:14.874Z,9.46
2019-03-31T17:11:46.451Z,9.48
2019-03-31T17:14:15.919Z,9.48
2019-03-31T17:16:45.028Z,9.31
2019-03-31T17:19:14.158Z,9.45
2019-03-31T17:21:43.454Z,9.37
2019-03-31T17:24:12.585Z,9.39
2019-03-31T17:26:41.706Z,9.47
2019-03-31T17:29:10.810Z,9.46
2019-03-31T17:31:39.957Z,9.25
2019-03-31T17:34:09.056Z,9.30
2019-03-31T17:36:38.251Z,9.31
2019-03-31T17:39:08.314Z,9.36
2019-03-31T17:41:37.458Z,9.14
2019-03-31T17:44:06.575Z,9.22
2019-03-31T17:46:35.744Z,9.07
2019-03-31T17:49:04.926Z,8.96
2019-03-31T17:51:34.057Z,8.99
2019-03-31T17:54:06.005Z,8.95
2019-03-31T17:56:34.055Z,8.95
2019-03-31T17:59:03.188Z,8.77
2019-03-31T18:01:32.295Z,8.78
2019-03-31T18:04:01.396Z,8.71
2019-03-31T18:06:30.509Z,8.70
2019-03-31T18:08:59.617Z,8.81
2019-03-31T18:11:29.221Z,8.54
2019-03-31T18:14:01.449Z,8.50
2019-03-31T18:16:31.404Z,8.68
2019-03-31T18:21:36.524Z,8.39
2019-03-31T18:24:05.855Z,8.28
2019-03-31T18:26:37.133Z,8.27
2019-03-31T18:29:06.570Z,8.20
2019-03-31T18:31:36.676Z,8.21
2019-03-31T18:34:07.422Z,8.22
2019-03-31T18:36:37.298Z,8.21
2019-03-31T18:39:07.700Z,8.09
2019-03-31T18:41:36.907Z,8.09
2019-03-31T18:44:06.270Z,7.82
2019-03-31T18:46:35.712Z,7.70
2019-03-31T18:49:05.920Z,7.60
2019-03-31T18:51:35.630Z,7.45
2019-03-31T18:54:29.887Z,7.33
2019-03-31T18:57:21.216Z,7.16
2019-03-31T19:00:04.649Z,6.98
2019-03-31T19:02:58.911Z,6.69
2019-03-31T19:05:59.185Z,6.69
2019-03-31T19:08:53.432Z,6.53
2019-03-31T19:11:47.761Z,6.53
2019-03-31T19:14:43.251Z,6.34
2019-03-31T19:17:44.253Z,6.29
2019-03-31T19:20:47.744Z,6.22
2019-03-31T19:23:33.232Z,6.22
2019-03-31T19:26:19.761Z,6.17
2019-03-31T19:29:11.624Z,6.05
2019-03-31T19:32:06.050Z,6.08
2019-03-31T19:35:06.341Z,6.00
2019-03-31T19:37:53.219Z,6.00
2019-03-31T19:40:41.605Z,5.99
2019-03-31T19:43:41.926Z,5.80
2019-03-31T19:46:30.073Z,5.74
2019-03-31T19:49:10.806Z,5.70
2019-03-31T19:52:06.572Z,5.62
2019-03-31T19:54:52.697Z,5.64
2019-03-31T19:57:46.106Z,5.63
2019-03-31T20:00:33.393Z,5.44
2019-03-31T20:03:11.008Z,5.18
2019-03-31T20:06:08.423Z,5.13
2019-03-31T20:08:44.846Z,5.11
2019-03-31T20:11:48.131Z,5.07
2019-03-31T20:14:40.651Z,5.21
2019-03-31T20:17:27.448Z,5.17
2019-03-31T20:20:18.350Z,5.00
2019-03-31T20:23:00.152Z,4.88
2019-03-31T20:25:44.855Z,4.84
2019-03-31T20:28:38.133Z,4.83
2019-03-31T20:31:14.071Z,4.80
2019-03-31T20:34:17.320Z,4.82
2019-03-31T20:37:04.599Z,4.75
2019-03-31T20:39:57.366Z,4.89
2019-03-31T20:42:46.924Z,4.77
2019-03-31T20:45:16.166Z,4.68
2019-03-31T20:47:45.358Z,4.55
2019-03-31T20:50:15.961Z,4.58
2019-03-31T20:52:45.089Z,4.60
2019-03-31T20:55:16.522Z,4.57
2019-03-31T20:57:45.141Z,4.59
2019-03-31T21:00:14.795Z,4.62
2019-03-31T21:02:44.017Z,4.56
2019-03-31T21:05:13.272Z,4.53
2019-03-31T21:07:42.713Z,4.51
2019-03-31T21:10:11.840Z,4.35
2019-03-31T21:12:40.985Z,4.35
2019-03-31T21:15:10.155Z,4.38
2019-03-31T21:17:39.282Z,4.27
2019-03-31T21:20:08.638Z,4.16
2019-03-31T21:22:37.749Z,4.01
2019-03-31T21:25:07.010Z,4.02
2019-03-31T21:27:36.083Z,3.96
2019-03-31T21:30:05.828Z,3.80
2019-03-31T21:32:34.970Z,3.62
2019-03-31T21:35:04.115Z,3.66
2019-03-31T21:37:33.277Z,3.67
2019-03-31T21:40:02.413Z,3.60
2019-03-31T21:42:31.519Z,3.46
2019-03-31T21:45:00.644Z,3.53
2019-03-31T21:47:29.785Z,3.56
2019-03-31T21:49:59.317Z,3.63
2019-03-31T21:52:28.366Z,3.48
2019-03-31T21:54:57.543Z,3.23
2019-03-31T21:57:26.695Z,3.07
2019-03-31T21:59:56.050Z,2.94
2019-03-31T22:02:25.399Z,2.79
2019-03-31T22:04:54.746Z,2.77
2019-03-31T22:07:23.880Z,2.65
2019-03-31T22:09:53.013Z,2.48
2019-03-31T22:12:22.361Z,2.55
2019-03-31T22:14:51.569Z,2.43
2019-03-31T22:17:20.788Z,2.49
2019-03-31T22:19:49.926Z,2.48
2019-03-31T22:22:19.064Z,2.39
2019-03-31T22:24:48.192Z,2.32
2019-03-31T22:27:17.321Z,2.25
2019-03-31T22:29:46.375Z,2.34
2019-03-31T22:32:15.610Z,2.25
2019-03-31T22:34:44.713Z,2.07
2019-03-31T22:37:13.843Z,2.01
2019-03-31T22:39:42.930Z,1.96
2019-03-31T22:42:12.024Z,2.04
2019-03-31T22:44:41.419Z,1.95
2019-03-31T22:47:10.537Z,1.99
2019-03-31T22:49:39.676Z,1.98
2019-03-31T22:52:08.784Z,1.76
2019-03-31T22:54:37.890Z,1.72
2019-03-31T22:57:07.120Z,1.48
2019-03-31T22:59:36.218Z,1.57
2019-03-31T23:02:05.344Z,1.61
2019-03-31T23:04:34.471Z,1.67
2019-03-31T23:07:04.078Z,1.55
2019-03-31T23:09:34.498Z,1.69
2019-03-31T23:12:03.745Z,1.68
2019-03-31T23:14:33.092Z,1.66
2019-03-31T23:17:02.198Z,1.58
2019-03-31T23:19:31.322Z,1.58
2019-03-31T23:22:00.421Z,1.53
2019-03-31T23:24:29.546Z,1.46
2019-03-31T23:26:58.632Z,1.43
2019-03-31T23:29:27.749Z,1.52
2019-03-31T23:31:56.878Z,1.34
2019-03-31T23:34:26.195Z,1.65
2019-03-31T23:36:55.290Z,1.53
2019-03-31T23:39:24.406Z,1.47
2019-03-31T23:41:53.497Z,1.42
2019-03-31T23:44:22.614Z,1.33
2019-03-31T23:46:51.768Z,1.44
2019-03-31T23:49:20.851Z,1.50
2019-03-31T23:51:49.984Z,1.43
2019-03-31T23:54:19.107Z,1.35
2019-03-31T23:56:48.193Z,1.44
2019-03-31T23:59:17.431Z,1.41
